sensor_id;sensor_type;location;lat;lon;timestamp;pressure;altitude;pressure_sealevel;temperature;humidity
60489;BME280;46331;49.252;8.904;2023-02-03T00:00:20;101000.16;;;6.64;84.17
60489;BME280;46331;49.252;8.904;2023-02-03T00:01:01;100990.97;;;6.60;84.69
60489;BME280;46331;49.252;8.904;2023-02-03T00:01:41;101003.16;;;6.61;84.63
60489;BME280;46331;49.252;8.904;2023-02-03T00:02:22;101008.31;;;6.54;84.50
60489;BME280;46331;49.252;8.904;2023-02-03T00:03:03;100994.97;;;6.56;84.71
60489;BME280;46331;49.252;8.904;2023-02-03T00:03:43;101001.53;;;6.60;84.29
60489;BME280;46331;49.252;8.904;2023-02-03T00:04:24;100997.91;;;6.61;84.49
60489;BME280;46331;49.252;8.904;2023-02-03T00:05:05;100994.59;;;6.59;83.94
60489;BME280;46331;49.252;8.904;2023-02-03T00:05:46;100989.44;;;6.66;83.89
60489;BME280;46331;49.252;8.904;2023-02-03T00:06:27;100989.53;;;6.72;83.85
60489;BME280;46331;49.252;8.904;2023-02-03T00:07:09;100989.63;;;6.64;84.13
60489;BME280;46331;49.252;8.904;2023-02-03T00:07:51;100991.25;;;6.65;84.26
60489;BME280;46331;49.252;8.904;2023-02-03T00:08:32;100984.00;;;6.67;84.15
60489;BME280;46331;49.252;8.904;2023-02-03T00:09:13;100985.16;;;6.65;84.54
60489;BME280;46331;49.252;8.904;2023-02-03T00:09:55;100973.34;;;6.60;83.87
60489;BME280;46331;49.252;8.904;2023-02-03T00:10:37;100972.78;;;6.65;84.44
60489;BME280;46331;49.252;8.904;2023-02-03T00:11:18;100983.16;;;6.67;83.93
60489;BME280;46331;49.252;8.904;2023-02-03T00:11:59;100982.44;;;6.58;83.99
60489;BME280;46331;49.252;8.904;2023-02-03T00:12:40;100984.81;;;6.68;84.36
60489;BME280;46331;49.252;8.904;2023-02-03T00:13:21;100984.34;;;6.64;84.28
60489;BME280;46331;49.252;8.904;2023-02-03T00:14:01;100982.97;;;6.53;84.69
60489;BME280;46331;49.252;8.904;2023-02-03T00:14:44;100987.72;;;6.58;84.24
60489;BME280;46331;49.252;8.904;2023-02-03T00:15:25;100986.50;;;6.60;84.33
60489;BME280;46331;49.252;8.904;2023-02-03T00:16:06;100983.34;;;6.65;84.52
60489;BME280;46331;49.252;8.904;2023-02-03T00:16:47;100987.53;;;6.59;84.39
60489;BME280;46331;49.252;8.904;2023-02-03T00:17:27;100986.69;;;6.59;84.43
60489;BME280;46331;49.252;8.904;2023-02-03T00:18:08;100995.78;;;6.56;84.29
60489;BME280;46331;49.252;8.904;2023-02-03T00:18:49;101001.69;;;6.58;84.08
60489;BME280;46331;49.252;8.904;2023-02-03T00:19:29;100988.53;;;6.58;84.64
60489;BME280;46331;49.252;8.904;2023-02-03T00:20:10;100991.06;;;6.52;84.49
60489;BME280;46331;49.252;8.904;2023-02-03T00:20:51;100989.88;;;6.54;85.00
60489;BME280;46331;49.252;8.904;2023-02-03T00:21:31;100983.34;;;6.65;84.42
60489;BME280;46331;49.252;8.904;2023-02-03T00:22:12;100985.69;;;6.60;84.40
60489;BME280;46331;49.252;8.904;2023-02-03T00:22:53;101000.59;;;6.53;84.95
60489;BME280;46331;49.252;8.904;2023-02-03T00:23:33;101010.22;;;6.60;84.66
60489;BME280;46331;49.252;8.904;2023-02-03T00:24:14;101010.22;;;6.60;84.94
60489;BME280;46331;49.252;8.904;2023-02-03T00:24:54;101006.44;;;6.63;84.65
60489;BME280;46331;49.252;8.904;2023-02-03T00:25:35;100995.25;;;6.61;84.62
60489;BME280;46331;49.252;8.904;2023-02-03T00:26:16;100995.53;;;6.66;84.29
60489;BME280;46331;49.252;8.904;2023-02-03T00:26:58;101006.97;;;6.58;84.95
60489;BME280;46331;49.252;8.904;2023-02-03T00:27:38;101002.44;;;6.67;84.27
60489;BME280;46331;49.252;8.904;2023-02-03T00:28:20;101000.97;;;6.65;84.46
60489;BME280;46331;49.252;8.904;2023-02-03T00:29:00;100998.44;;;6.71;84.27
60489;BME280;46331;49.252;8.904;2023-02-03T00:29:41;100996.69;;;6.63;84.82
60489;BME280;46331;49.252;8.904;2023-02-03T00:30:21;101003.06;;;6.69;84.53
60489;BME280;46331;49.252;8.904;2023-02-03T00:31:03;101002.44;;;6.67;84.22
60489;BME280;46331;49.252;8.904;2023-02-03T00:31:44;100996.97;;;6.54;85.19
60489;BME280;46331;49.252;8.904;2023-02-03T00:32:25;100996.69;;;6.49;84.85
60489;BME280;46331;49.252;8.904;2023-02-03T00:33:06;100983.78;;;6.54;84.99
60489;BME280;46331;49.252;8.904;2023-02-03T00:33:47;100999.16;;;6.50;85.27
60489;BME280;46331;49.252;8.904;2023-02-03T00:34:32;100992.31;;;6.56;85.01
60489;BME280;46331;49.252;8.904;2023-02-03T00:35:12;100988.88;;;6.55;85.23
60489;BME280;46331;49.252;8.904;2023-02-03T00:35:53;100995.44;;;6.59;85.10
60489;BME280;46331;49.252;8.904;2023-02-03T00:36:35;100977.97;;;6.58;84.72
60489;BME280;46331;49.252;8.904;2023-02-03T00:37:15;100980.34;;;6.53;85.09
60489;BME280;46331;49.252;8.904;2023-02-03T00:37:56;100988.78;;;6.63;85.11
60489;BME280;46331;49.252;8.904;2023-02-03T00:38:37;100979.34;;;6.69;84.78
60489;BME280;46331;49.252;8.904;2023-02-03T00:39:18;100992.16;;;6.72;84.04
60489;BME280;46331;49.252;8.904;2023-02-03T00:40:00;100998.00;;;6.68;84.22
60489;BME280;46331;49.252;8.904;2023-02-03T00:40:40;100996.81;;;6.70;84.34
60489;BME280;46331;49.252;8.904;2023-02-03T00:41:21;100990.63;;;6.63;84.70
60489;BME280;46331;49.252;8.904;2023-02-03T00:42:03;101002.69;;;6.57;85.04
60489;BME280;46331;49.252;8.904;2023-02-03T00:42:44;100996.34;;;6.67;84.85
60489;BME280;46331;49.252;8.904;2023-02-03T00:43:25;101003.13;;;6.46;85.11
60489;BME280;46331;49.252;8.904;2023-02-03T00:44:06;100984.78;;;6.53;85.46
60489;BME280;46331;49.252;8.904;2023-02-03T00:44:48;100995.97;;;6.55;85.03
60489;BME280;46331;49.252;8.904;2023-02-03T00:45:28;100995.44;;;6.59;84.75
60489;BME280;46331;49.252;8.904;2023-02-03T00:46:10;100998.34;;;6.65;84.83
60489;BME280;46331;49.252;8.904;2023-02-03T00:46:51;100999.09;;;6.73;85.05
60489;BME280;46331;49.252;8.904;2023-02-03T00:47:31;100994.63;;;6.74;85.10
60489;BME280;46331;49.252;8.904;2023-02-03T00:48:12;100996.47;;;6.73;84.54
60489;BME280;46331;49.252;8.904;2023-02-03T00:48:53;100987.81;;;6.65;85.06
60489;BME280;46331;49.252;8.904;2023-02-03T00:49:33;100992.34;;;6.71;84.80
60489;BME280;46331;49.252;8.904;2023-02-03T00:50:14;100989.28;;;6.67;84.86
60489;BME280;46331;49.252;8.904;2023-02-03T00:50:55;100985.63;;;6.53;85.09
60489;BME280;46331;49.252;8.904;2023-02-03T00:51:35;100976.81;;;6.61;85.12
60489;BME280;46331;49.252;8.904;2023-02-03T00:52:16;100979.44;;;6.61;85.48
60489;BME280;46331;49.252;8.904;2023-02-03T00:52:56;100985.25;;;6.56;85.50
60489;BME280;46331;49.252;8.904;2023-02-03T00:53:37;100984.72;;;6.61;85.02
60489;BME280;46331;49.252;8.904;2023-02-03T00:54:17;100975.53;;;6.57;85.08
60489;BME280;46331;49.252;8.904;2023-02-03T00:54:58;100975.53;;;6.57;85.60
60489;BME280;46331;49.252;8.904;2023-02-03T00:55:39;100976.81;;;6.61;85.05
60489;BME280;46331;49.252;8.904;2023-02-03T00:56:19;100973.06;;;6.55;85.64
60489;BME280;46331;49.252;8.904;2023-02-03T00:57:00;100965.25;;;6.62;85.26
60489;BME280;46331;49.252;8.904;2023-02-03T00:57:40;100976.31;;;6.57;85.48
60489;BME280;46331;49.252;8.904;2023-02-03T00:58:21;100968.59;;;6.56;85.46
60489;BME280;46331;49.252;8.904;2023-02-03T00:59:01;100968.06;;;6.60;85.21
60489;BME280;46331;49.252;8.904;2023-02-03T00:59:44;100963.63;;;6.61;85.19
60489;BME280;46331;49.252;8.904;2023-02-03T01:00:25;100958.34;;;6.61;85.46
60489;BME280;46331;49.252;8.904;2023-02-03T01:01:06;100966.44;;;6.59;85.47
60489;BME280;46331;49.252;8.904;2023-02-03T01:01:46;100964.81;;;6.58;85.42
60489;BME280;46331;49.252;8.904;2023-02-03T01:02:29;100966.22;;;6.46;85.54
60489;BME280;46331;49.252;8.904;2023-02-03T01:03:09;100972.34;;;6.61;85.26
60489;BME280;46331;49.252;8.904;2023-02-03T01:03:50;100970.44;;;6.55;85.73
60489;BME280;46331;49.252;8.904;2023-02-03T01:04:30;100965.50;;;6.52;85.97
60489;BME280;46331;49.252;8.904;2023-02-03T01:05:11;100967.34;;;6.52;85.67
60489;BME280;46331;49.252;8.904;2023-02-03T01:05:51;100962.97;;;6.59;85.53
60489;BME280;46331;49.252;8.904;2023-02-03T01:06:33;100968.25;;;6.59;85.73
60489;BME280;46331;49.252;8.904;2023-02-03T01:07:13;100963.28;;;6.64;85.07
60489;BME280;46331;49.252;8.904;2023-02-03T01:07:54;100969.09;;;6.59;85.51
60489;BME280;46331;49.252;8.904;2023-02-03T01:08:34;100966.06;;;6.48;85.38
60489;BME280;46331;49.252;8.904;2023-02-03T01:09:15;100956.44;;;6.55;85.99
60489;BME280;46331;49.252;8.904;2023-02-03T01:09:55;100963.28;;;6.64;85.61
60489;BME280;46331;49.252;8.904;2023-02-03T01:10:37;100961.81;;;6.61;85.29
60489;BME280;46331;49.252;8.904;2023-02-03T01:11:22;100955.25;;;6.57;85.63
60489;BME280;46331;49.252;8.904;2023-02-03T01:12:04;100968.59;;;6.56;85.49
60489;BME280;46331;49.252;8.904;2023-02-03T01:12:44;100968.97;;;6.53;86.06
60489;BME280;46331;49.252;8.904;2023-02-03T01:13:25;100965.25;;;6.62;85.30
60489;BME280;46331;49.252;8.904;2023-02-03T01:14:05;100963.63;;;6.61;85.65
60489;BME280;46331;49.252;8.904;2023-02-03T01:14:46;100959.84;;;6.40;86.22
60489;BME280;46331;49.252;8.904;2023-02-03T01:15:26;100993.56;;;6.45;86.07
60489;BME280;46331;49.252;8.904;2023-02-03T01:16:12;100988.84;;;6.40;86.31
60489;BME280;46331;49.252;8.904;2023-02-03T01:16:53;100975.06;;;6.53;86.49
60489;BME280;46331;49.252;8.904;2023-02-03T01:17:33;100980.44;;;6.60;85.94
60489;BME280;46331;49.252;8.904;2023-02-03T01:18:14;100977.97;;;6.58;85.60
60489;BME280;46331;49.252;8.904;2023-02-03T01:18:54;100967.88;;;6.62;85.73
60489;BME280;46331;49.252;8.904;2023-02-03T01:19:35;100978.16;;;6.57;85.23
60489;BME280;46331;49.252;8.904;2023-02-03T01:20:16;100979.97;;;6.56;85.91
60489;BME280;46331;49.252;8.904;2023-02-03T01:20:56;100976.22;;;6.51;86.12
60489;BME280;46331;49.252;8.904;2023-02-03T01:21:39;100978.50;;;6.54;86.09
60489;BME280;46331;49.252;8.904;2023-02-03T01:22:20;100983.91;;;6.37;86.69
60489;BME280;46331;49.252;8.904;2023-02-03T01:23:00;100973.06;;;6.55;85.96
60489;BME280;46331;49.252;8.904;2023-02-03T01:23:41;100985.44;;;6.55;85.68
60489;BME280;46331;49.252;8.904;2023-02-03T01:24:22;100984.78;;;6.53;86.23
60489;BME280;46331;49.252;8.904;2023-02-03T01:25:02;101001.88;;;6.57;85.77
60489;BME280;46331;49.252;8.904;2023-02-03T01:25:43;100988.88;;;6.55;86.08
60489;BME280;46331;49.252;8.904;2023-02-03T01:26:23;100990.16;;;6.59;85.42
60489;BME280;46331;49.252;8.904;2023-02-03T01:27:04;100991.06;;;6.67;85.46
60489;BME280;46331;49.252;8.904;2023-02-03T01:27:45;100971.59;;;6.53;85.06
60489;BME280;46331;49.252;8.904;2023-02-03T01:28:26;100994.53;;;6.67;85.43
60489;BME280;46331;49.252;8.904;2023-02-03T01:29:07;100980.88;;;6.63;85.05
60489;BME280;46331;49.252;8.904;2023-02-03T01:29:48;100990.63;;;6.63;85.35
60489;BME280;46331;49.252;8.904;2023-02-03T01:30:28;100985.78;;;6.67;85.27
60489;BME280;46331;49.252;8.904;2023-02-03T01:31:49;100979.97;;;6.71;85.08
60489;BME280;46331;49.252;8.904;2023-02-03T01:32:30;100988.31;;;6.45;86.08
60489;BME280;46331;49.252;8.904;2023-02-03T01:33:11;100982.63;;;6.56;86.44
60489;BME280;46331;49.252;8.904;2023-02-03T01:33:52;100983.69;;;6.47;85.84
60489;BME280;46331;49.252;8.904;2023-02-03T01:34:33;100977.53;;;6.55;86.14
60489;BME280;46331;49.252;8.904;2023-02-03T01:35:14;100973.34;;;6.60;85.46
60489;BME280;46331;49.252;8.904;2023-02-03T01:35:59;100975.25;;;6.67;85.48
60489;BME280;46331;49.252;8.904;2023-02-03T01:36:39;100975.97;;;6.60;86.21
60489;BME280;46331;49.252;8.904;2023-02-03T01:37:20;100972.44;;;6.68;85.13
60489;BME280;46331;49.252;8.904;2023-02-03T01:38:01;100974.66;;;6.79;85.10
60489;BME280;46331;49.252;8.904;2023-02-03T01:38:41;100975.00;;;6.76;85.35
60489;BME280;46331;49.252;8.904;2023-02-03T01:39:22;100980.28;;;6.76;85.07
60489;BME280;46331;49.252;8.904;2023-02-03T01:40:03;100976.97;;;6.74;84.57
60489;BME280;46331;49.252;8.904;2023-02-03T01:40:44;100966.97;;;6.70;85.24
60489;BME280;46331;49.252;8.904;2023-02-03T01:41:28;100966.72;;;6.65;85.18
60489;BME280;46331;49.252;8.904;2023-02-03T01:42:13;100960.50;;;6.57;85.70
60489;BME280;46331;49.252;8.904;2023-02-03T01:42:54;100966.16;;;6.69;85.58
60489;BME280;46331;49.252;8.904;2023-02-03T01:43:37;100967.63;;;6.57;85.41
60489;BME280;46331;49.252;8.904;2023-02-03T01:45:11;100952.44;;;6.74;85.15
60489;BME280;46331;49.252;8.904;2023-02-03T01:45:52;100951.53;;;6.67;84.94
60489;BME280;46331;49.252;8.904;2023-02-03T01:46:46;100946.56;;;6.72;85.14
60489;BME280;46331;49.252;8.904;2023-02-03T01:47:54;100943.16;;;6.63;85.07
60489;BME280;46331;49.252;8.904;2023-02-03T01:48:37;100945.81;;;6.63;85.35
60489;BME280;46331;49.252;8.904;2023-02-03T01:49:24;100933.09;;;6.52;86.30
60489;BME280;46331;49.252;8.904;2023-02-03T01:50:13;100938.97;;;6.54;85.36
60489;BME280;46331;49.252;8.904;2023-02-03T01:50:59;100929.38;;;6.61;85.58
60489;BME280;46331;49.252;8.904;2023-02-03T01:51:42;100943.16;;;6.63;85.48
60489;BME280;46331;49.252;8.904;2023-02-03T01:52:23;100929.91;;;6.56;85.63
60489;BME280;46331;49.252;8.904;2023-02-03T01:53:07;100929.06;;;6.56;86.36
60489;BME280;46331;49.252;8.904;2023-02-03T01:53:51;100932.19;;;6.59;86.15
60489;BME280;46331;49.252;8.904;2023-02-03T01:54:36;100927.63;;;6.68;85.49
60489;BME280;46331;49.252;8.904;2023-02-03T01:55:22;100929.28;;;6.69;85.49
60489;BME280;46331;49.252;8.904;2023-02-03T01:56:05;100920.19;;;6.57;86.07
60489;BME280;46331;49.252;8.904;2023-02-03T01:56:50;100914.63;;;6.52;86.08
60489;BME280;46331;49.252;8.904;2023-02-03T01:57:40;100914.53;;;6.60;86.14
60489;BME280;46331;49.252;8.904;2023-02-03T01:58:27;100922.81;;;6.57;86.42
60489;BME280;46331;49.252;8.904;2023-02-03T01:59:08;100929.53;;;6.59;86.53
60489;BME280;46331;49.252;8.904;2023-02-03T01:59:51;100925.88;;;6.60;86.41
60489;BME280;46331;49.252;8.904;2023-02-03T02:00:33;100913.34;;;6.48;86.83
60489;BME280;46331;49.252;8.904;2023-02-03T02:01:14;100914.28;;;6.55;86.83
60489;BME280;46331;49.252;8.904;2023-02-03T02:01:55;100926.53;;;6.62;86.15
60489;BME280;46331;49.252;8.904;2023-02-03T02:02:37;100916.72;;;6.56;86.38
60489;BME280;46331;49.252;8.904;2023-02-03T02:03:19;100931.53;;;6.42;86.73
60489;BME280;46331;49.252;8.904;2023-02-03T02:04:02;100925.97;;;6.37;87.08
60489;BME280;46331;49.252;8.904;2023-02-03T02:05:57;100935.81;;;6.58;86.59
60489;BME280;46331;49.252;8.904;2023-02-03T02:06:39;100927.28;;;6.56;86.57
60489;BME280;46331;49.252;8.904;2023-02-03T02:07:25;100926.78;;;6.53;86.98
60489;BME280;46331;49.252;8.904;2023-02-03T02:08:07;100926.72;;;6.61;86.89
60489;BME280;46331;49.252;8.904;2023-02-03T02:08:50;100913.91;;;6.58;86.97
60489;BME280;46331;49.252;8.904;2023-02-03T02:09:31;100905.72;;;6.53;86.56
60489;BME280;46331;49.252;8.904;2023-02-03T02:10:12;100910.91;;;6.46;87.40
60489;BME280;46331;49.252;8.904;2023-02-03T02:10:57;100891.91;;;6.51;86.84
60489;BME280;46331;49.252;8.904;2023-02-03T02:11:38;100903.44;;;6.50;87.06
60489;BME280;46331;49.252;8.904;2023-02-03T02:12:19;100881.81;;;6.54;87.13
60489;BME280;46331;49.252;8.904;2023-02-03T02:13:01;100869.19;;;6.50;87.18
60489;BME280;46331;49.252;8.904;2023-02-03T02:13:44;100862.66;;;6.46;87.62
60489;BME280;46331;49.252;8.904;2023-02-03T02:14:25;100853.03;;;6.38;87.88
60489;BME280;46331;49.252;8.904;2023-02-03T02:15:06;100853.47;;;6.41;87.97
60489;BME280;46331;49.252;8.904;2023-02-03T02:15:53;100836.00;;;6.40;88.47
60489;BME280;46331;49.252;8.904;2023-02-03T02:17:04;100844.91;;;6.24;88.74
60489;BME280;46331;49.252;8.904;2023-02-03T02:18:03;100859.56;;;6.27;88.56
60489;BME280;46331;49.252;8.904;2023-02-03T02:21:38;100888.63;;;6.34;88.70
60489;BME280;46331;49.252;8.904;2023-02-03T02:22:29;100885.19;;;6.33;88.68
60489;BME280;46331;49.252;8.904;2023-02-03T02:24:07;100883.91;;;6.29;88.83
60489;BME280;46331;49.252;8.904;2023-02-03T02:24:47;100891.34;;;6.40;88.44
60489;BME280;46331;49.252;8.904;2023-02-03T02:28:36;100883.75;;;6.46;88.30
60489;BME280;46331;49.252;8.904;2023-02-03T02:31:46;100878.91;;;6.49;88.65
60489;BME280;46331;49.252;8.904;2023-02-03T02:33:56;100878.91;;;6.34;88.93
60489;BME280;46331;49.252;8.904;2023-02-03T02:36:52;100887.81;;;6.48;89.03
60489;BME280;46331;49.252;8.904;2023-02-03T02:37:43;100883.19;;;6.35;88.78
60489;BME280;46331;49.252;8.904;2023-02-03T02:39:20;100888.44;;;6.35;89.29
60489;BME280;46331;49.252;8.904;2023-02-03T02:41:11;100886.19;;;6.47;88.82
60489;BME280;46331;49.252;8.904;2023-02-03T02:42:00;100892.72;;;6.51;88.69
60489;BME280;46331;49.252;8.904;2023-02-03T02:43:03;100890.00;;;6.44;88.96
60489;BME280;46331;49.252;8.904;2023-02-03T02:43:54;100886.91;;;6.41;89.07
60489;BME280;46331;49.252;8.904;2023-02-03T02:44:41;100892.81;;;6.43;89.78
60489;BME280;46331;49.252;8.904;2023-02-03T02:45:32;100887.53;;;6.43;89.39
60489;BME280;46331;49.252;8.904;2023-02-03T02:46:18;100883.63;;;6.39;89.30
60489;BME280;46331;49.252;8.904;2023-02-03T02:47:05;100876.81;;;6.44;89.49
60489;BME280;46331;49.252;8.904;2023-02-03T02:47:58;100888.09;;;6.38;89.30
60489;BME280;46331;49.252;8.904;2023-02-03T02:48:47;100876.00;;;6.44;89.34
60489;BME280;46331;49.252;8.904;2023-02-03T02:49:34;100886.25;;;6.39;89.98
60489;BME280;46331;49.252;8.904;2023-02-03T02:50:21;100892.69;;;6.21;90.19
60489;BME280;46331;49.252;8.904;2023-02-03T02:51:05;100883.63;;;6.39;90.06
60489;BME280;46331;49.252;8.904;2023-02-03T02:51:48;100876.38;;;6.41;89.30
60489;BME280;46331;49.252;8.904;2023-02-03T02:52:34;100889.06;;;6.37;89.81
60489;BME280;46331;49.252;8.904;2023-02-03T02:53:17;100876.91;;;6.51;89.77
60489;BME280;46331;49.252;8.904;2023-02-03T02:54:04;100875.00;;;6.30;90.20
60489;BME280;46331;49.252;8.904;2023-02-03T02:54:51;100870.28;;;6.40;89.96
60489;BME280;46331;49.252;8.904;2023-02-03T02:55:37;100861.91;;;6.37;90.28
60489;BME280;46331;49.252;8.904;2023-02-03T02:56:22;100871.66;;;6.36;90.07
60489;BME280;46331;49.252;8.904;2023-02-03T02:57:05;100873.25;;;6.37;90.36
60489;BME280;46331;49.252;8.904;2023-02-03T02:57:48;100868.66;;;6.39;90.33
60489;BME280;46331;49.252;8.904;2023-02-03T02:58:34;100865.34;;;6.37;90.43
60489;BME280;46331;49.252;8.904;2023-02-03T02:59:17;100866.97;;;6.23;91.14
60489;BME280;46331;49.252;8.904;2023-02-03T02:59:57;100866.91;;;6.32;91.16
60489;BME280;46331;49.252;8.904;2023-02-03T03:00:39;100869.47;;;6.40;90.10
60489;BME280;46331;49.252;8.904;2023-02-03T03:01:20;100871.34;;;6.31;90.80
60489;BME280;46331;49.252;8.904;2023-02-03T03:02:01;100865.34;;;6.37;90.20
60489;BME280;46331;49.252;8.904;2023-02-03T03:02:42;100857.75;;;6.42;90.43
60489;BME280;46331;49.252;8.904;2023-02-03T03:03:23;100866.91;;;6.32;90.39
60489;BME280;46331;49.252;8.904;2023-02-03T03:04:04;100870.09;;;6.42;90.11
60489;BME280;46331;49.252;8.904;2023-02-03T03:04:49;100871.28;;;6.39;90.42
60489;BME280;46331;49.252;8.904;2023-02-03T03:05:31;100865.47;;;6.44;90.12
60489;BME280;46331;49.252;8.904;2023-02-03T03:06:28;100873.25;;;6.37;90.08
60489;BME280;46331;49.252;8.904;2023-02-03T03:07:13;100880.44;;;6.43;90.29
60489;BME280;46331;49.252;8.904;2023-02-03T03:07:59;100881.16;;;6.37;89.94
60489;BME280;46331;49.252;8.904;2023-02-03T03:09:28;100879.00;;;6.26;90.24
60489;BME280;46331;49.252;8.904;2023-02-03T03:10:18;100876.78;;;6.30;90.62
60489;BME280;46331;49.252;8.904;2023-02-03T03:11:01;100880.91;;;6.32;91.04
60489;BME280;46331;49.252;8.904;2023-02-03T03:11:49;100876.63;;;6.31;91.28
60489;BME280;46331;49.252;8.904;2023-02-03T03:12:35;100904.16;;;6.29;91.41
60489;BME280;46331;49.252;8.904;2023-02-03T03:13:23;100896.50;;;6.19;91.82
60489;BME280;46331;49.252;8.904;2023-02-03T03:14:07;100894.25;;;6.31;91.77
60489;BME280;46331;49.252;8.904;2023-02-03T03:15:29;100897.25;;;6.28;91.65
60489;BME280;46331;49.252;8.904;2023-02-03T03:16:04;100892.13;;;6.11;92.69
60489;BME280;46331;49.252;8.904;2023-02-03T03:16:58;100893.50;;;6.07;93.43
60489;BME280;46331;49.252;8.904;2023-02-03T03:17:41;100887.88;;;6.10;93.75
60489;BME280;46331;49.252;8.904;2023-02-03T03:18:29;100891.13;;;6.12;93.72
60489;BME280;46331;49.252;8.904;2023-02-03T03:19:26;100892.19;;;6.03;93.92
60489;BME280;46331;49.252;8.904;2023-02-03T03:20:15;100880.34;;;6.07;93.66
60489;BME280;46331;49.252;8.904;2023-02-03T03:21:00;100887.78;;;5.95;94.26
60489;BME280;46331;49.252;8.904;2023-02-03T03:21:50;100889.13;;;5.99;94.21
60489;BME280;46331;49.252;8.904;2023-02-03T03:22:39;100881.91;;;5.93;94.60
60489;BME280;46331;49.252;8.904;2023-02-03T03:23:26;100916.63;;;5.97;94.79
60489;BME280;46331;49.252;8.904;2023-02-03T03:24:12;100903.72;;;6.02;94.36
60489;BME280;46331;49.252;8.904;2023-02-03T03:24:59;100916.75;;;5.95;94.17
60489;BME280;46331;49.252;8.904;2023-02-03T03:25:45;100905.78;;;5.91;94.99
60489;BME280;46331;49.252;8.904;2023-02-03T03:27:19;100903.59;;;5.95;94.45
60489;BME280;46331;49.252;8.904;2023-02-03T03:28:07;100912.66;;;5.93;94.81
60489;BME280;46331;49.252;8.904;2023-02-03T03:28:56;100911.03;;;5.91;94.59
60489;BME280;46331;49.252;8.904;2023-02-03T03:29:42;100899.66;;;5.91;94.76
60489;BME280;46331;49.252;8.904;2023-02-03T03:30:28;100906.94;;;5.89;94.48
60489;BME280;46331;49.252;8.904;2023-02-03T03:31:12;100912.72;;;5.84;95.05
60489;BME280;46331;49.252;8.904;2023-02-03T03:31:52;100909.84;;;5.94;94.70
60489;BME280;46331;49.252;8.904;2023-02-03T03:32:33;100923.53;;;5.98;94.98
60489;BME280;46331;49.252;8.904;2023-02-03T03:33:14;100929.47;;;5.91;94.65
60489;BME280;46331;49.252;8.904;2023-02-03T03:33:55;100915.78;;;5.96;94.87
60489;BME280;46331;49.252;8.904;2023-02-03T03:34:36;100936.69;;;5.98;94.63
60489;BME280;46331;49.252;8.904;2023-02-03T03:35:17;100925.16;;;5.99;94.33
60489;BME280;46331;49.252;8.904;2023-02-03T03:36:03;100931.53;;;6.04;94.37
60489;BME280;46331;49.252;8.904;2023-02-03T03:37:39;100942.25;;;6.03;97.63
60489;BME280;46331;49.252;8.904;2023-02-03T03:38:29;100936.50;;;5.99;97.88
60489;BME280;46331;49.252;8.904;2023-02-03T03:39:21;100935.97;;;6.04;99.46
60489;BME280;46331;49.252;8.904;2023-02-03T03:40:09;100931.53;;;6.04;96.53
60489;BME280;46331;49.252;8.904;2023-02-03T03:40:56;100935.69;;;5.99;95.88
60489;BME280;46331;49.252;8.904;2023-02-03T03:42:33;100936.34;;;5.93;95.17
60489;BME280;46331;49.252;8.904;2023-02-03T03:43:19;100936.69;;;5.98;95.14
60489;BME280;46331;49.252;8.904;2023-02-03T03:44:03;100927.28;;;5.95;95.48
60489;BME280;46331;49.252;8.904;2023-02-03T03:45:12;100937.78;;;6.03;95.22
60489;BME280;46331;49.252;8.904;2023-02-03T03:46:03;100930.53;;;6.05;95.02
60489;BME280;46331;49.252;8.904;2023-02-03T03:46:50;100938.25;;;6.07;94.87
60489;BME280;46331;49.252;8.904;2023-02-03T03:48:55;100923.00;;;6.02;94.56
60489;BME280;46331;49.252;8.904;2023-02-03T03:49:40;100928.78;;;5.98;95.03
60489;BME280;46331;49.252;8.904;2023-02-03T03:50:28;100919.53;;;6.02;94.75
60489;BME280;46331;49.252;8.904;2023-02-03T03:51:17;100922.16;;;6.02;94.37
60489;BME280;46331;49.252;8.904;2023-02-03T03:52:04;100929.88;;;6.03;94.75
60489;BME280;46331;49.252;8.904;2023-02-03T03:52:48;100924.44;;;6.05;94.99
60489;BME280;46331;49.252;8.904;2023-02-03T03:53:31;100924.97;;;6.00;94.58
60489;BME280;46331;49.252;8.904;2023-02-03T03:54:18;100918.09;;;5.99;94.69
60489;BME280;46331;49.252;8.904;2023-02-03T03:55:00;100920.19;;;5.96;95.26
60489;BME280;46331;49.252;8.904;2023-02-03T03:55:46;100928.44;;;6.01;95.05
60489;BME280;46331;49.252;8.904;2023-02-03T03:56:32;100932.81;;;6.08;95.02
60489;BME280;46331;49.252;8.904;2023-02-03T03:58:22;100921.53;;;6.00;95.47
60489;BME280;46331;49.252;8.904;2023-02-03T03:59:06;100920.00;;;6.05;94.93
60489;BME280;46331;49.252;8.904;2023-02-03T03:59:49;100913.28;;;6.03;95.10
60489;BME280;46331;49.252;8.904;2023-02-03T04:00:33;100922.34;;;6.00;95.26
60489;BME280;46331;49.252;8.904;2023-02-03T04:01:15;100916.25;;;6.00;95.49
60489;BME280;46331;49.252;8.904;2023-02-03T04:01:58;100915.44;;;5.99;95.67
60489;BME280;46331;49.252;8.904;2023-02-03T04:02:45;100924.56;;;5.88;95.48
60489;BME280;46331;49.252;8.904;2023-02-03T04:03:39;100923.72;;;5.88;96.41
60489;BME280;46331;49.252;8.904;2023-02-03T04:04:25;100915.19;;;5.86;97.37
60489;BME280;46331;49.252;8.904;2023-02-03T04:05:07;100922.91;;;5.87;97.34
60489;BME280;46331;49.252;8.904;2023-02-03T04:05:50;100919.28;;;5.88;97.29
60489;BME280;46331;49.252;8.904;2023-02-03T04:06:30;100918.63;;;5.86;97.26
60489;BME280;46331;49.252;8.904;2023-02-03T04:07:12;100908.44;;;5.83;97.55
60489;BME280;46331;49.252;8.904;2023-02-03T04:07:53;100907.00;;;5.81;98.11
60489;BME280;46331;49.252;8.904;2023-02-03T04:08:33;100911.09;;;5.83;98.15
60489;BME280;46331;49.252;8.904;2023-02-03T04:09:14;100907.81;;;5.81;98.79
60489;BME280;46331;49.252;8.904;2023-02-03T04:09:54;100903.59;;;5.72;98.58
60489;BME280;46331;49.252;8.904;2023-02-03T04:10:37;100908.88;;;5.72;99.60
60489;BME280;46331;49.252;8.904;2023-02-03T04:11:19;100909.22;;;5.69;100.00
60489;BME280;46331;49.252;8.904;2023-02-03T04:12:22;100908.88;;;5.72;100.00
60489;BME280;46331;49.252;8.904;2023-02-03T04:13:03;100904.75;;;5.69;100.00
60489;BME280;46331;49.252;8.904;2023-02-03T04:13:44;100908.75;;;5.65;100.00